createdAt,value
2017-08-09T00:01:29.029Z,2.70
2017-08-09T00:03:57.319Z,3.10
2017-08-09T00:06:24.863Z,2.93
2017-08-09T00:08:53.156Z,2.60
2017-08-09T00:11:20.682Z,2.80
2017-08-09T00:13:48.319Z,2.77
2017-08-09T00:18:47.600Z,2.50
2017-08-09T00:21:15.212Z,2.90
2017-08-09T00:23:43.662Z,3.07
2017-08-09T00:26:11.190Z,3.00
2017-08-09T00:31:12.030Z,3.60
2017-08-09T00:33:40.349Z,3.80
2017-08-09T00:36:07.865Z,3.83
2017-08-09T00:38:36.493Z,3.50
2017-08-09T00:41:04.053Z,3.20
2017-08-09T00:43:31.577Z,3.53
2017-08-09T00:46:00.137Z,4.23
2017-08-09T00:48:29.497Z,3.97
2017-08-09T00:50:57.018Z,3.70
2017-08-09T00:53:24.630Z,2.73
2017-08-09T00:55:52.584Z,3.60
2017-08-09T00:58:20.103Z,3.77
2017-08-09T01:00:48.414Z,3.90
2017-08-09T01:03:17.618Z,3.97
2017-08-09T01:05:45.148Z,3.70
2017-08-09T01:08:13.434Z,3.20
2017-08-09T01:10:44.497Z,3.13
2017-08-09T01:13:12.363Z,2.97
2017-08-09T01:15:39.894Z,3.10
2017-08-09T01:18:07.440Z,2.70
2017-08-09T01:20:35.762Z,3.00
2017-08-09T01:23:03.316Z,2.57
2017-08-09T01:25:30.850Z,3.00
2017-08-09T01:27:58.441Z,2.43
2017-08-09T01:30:25.958Z,2.17
2017-08-09T01:32:54.271Z,3.20
2017-08-09T01:35:21.834Z,3.07
2017-08-09T01:37:49.530Z,3.20
2017-08-09T01:40:17.073Z,3.10
2017-08-09T01:42:44.585Z,2.90
2017-08-09T01:45:12.867Z,3.50
2017-08-09T01:47:40.405Z,3.40
2017-08-09T01:50:08.705Z,3.90
2017-08-09T01:52:36.300Z,4.10
2017-08-09T01:55:03.833Z,6.00
2017-08-09T01:57:31.413Z,5.83
2017-08-09T01:59:58.968Z,5.23
2017-08-09T02:02:26.525Z,5.90
2017-08-09T02:04:54.052Z,5.70
2017-08-09T02:07:22.349Z,6.70
2017-08-09T02:09:49.885Z,7.90
2017-08-09T02:12:18.298Z,7.50
2017-08-09T02:14:45.825Z,9.97
2017-08-09T02:17:14.142Z,11.23
2017-08-09T02:19:41.672Z,8.83
2017-08-09T02:22:09.199Z,8.57
2017-08-09T02:24:36.738Z,8.27
2017-08-09T02:27:04.266Z,10.00
2017-08-09T02:29:31.794Z,10.13
2017-08-09T02:32:00.121Z,12.83
2017-08-09T02:34:27.652Z,11.23
2017-08-09T02:36:55.242Z,12.57
2017-08-09T02:39:22.806Z,11.23
2017-08-09T02:41:50.357Z,12.23
2017-08-09T02:44:17.889Z,12.37
2017-08-09T02:46:45.479Z,11.57
2017-08-09T02:49:13.010Z,11.87
2017-08-09T02:51:40.553Z,10.57
2017-08-09T02:54:08.865Z,9.70
2017-08-09T02:56:36.393Z,11.20
2017-08-09T02:59:03.981Z,10.43
2017-08-09T03:01:31.537Z,10.43
2017-08-09T03:03:59.065Z,9.97
2017-08-09T03:06:27.377Z,9.60
2017-08-09T03:08:54.917Z,9.70
2017-08-09T03:11:22.496Z,9.57
2017-08-09T03:13:50.023Z,10.43
2017-08-09T03:16:18.334Z,10.23
2017-08-09T03:18:45.888Z,9.70
2017-08-09T03:21:13.455Z,11.93
2017-08-09T03:23:41.007Z,11.07
2017-08-09T03:26:08.532Z,12.20
2017-08-09T03:28:36.822Z,10.63
2017-08-09T03:31:04.369Z,11.70
2017-08-09T03:33:32.666Z,11.47
2017-08-09T03:36:00.256Z,11.70
2017-08-09T03:38:27.803Z,11.00
2017-08-09T03:40:55.329Z,14.00
2017-08-09T03:43:22.930Z,10.77
2017-08-09T03:45:50.488Z,10.20
2017-08-09T03:48:18.017Z,9.77
2017-08-09T03:50:45.903Z,9.43
2017-08-09T03:53:13.453Z,7.77
2017-08-09T03:55:40.979Z,8.47
2017-08-09T03:58:09.273Z,8.60
2017-08-09T04:00:36.815Z,7.50
2017-08-09T04:03:05.097Z,6.20
2017-08-09T04:05:33.385Z,7.23
2017-08-09T04:08:00.921Z,6.90
2017-08-09T04:10:28.441Z,6.50
2017-08-09T04:12:55.995Z,5.60
2017-08-09T04:15:23.549Z,6.27
2017-08-09T04:17:51.074Z,5.63
2017-08-09T04:20:19.494Z,5.50
2017-08-09T04:22:47.035Z,5.63
2017-08-09T04:25:14.557Z,5.60
2017-08-09T04:27:43.107Z,5.13
2017-08-09T04:30:10.648Z,5.90
2017-08-09T04:32:38.312Z,5.20
2017-08-09T04:35:05.971Z,5.43
2017-08-09T04:37:33.530Z,6.30
2017-08-09T04:40:01.090Z,6.60
2017-08-09T04:42:28.624Z,6.60
2017-08-09T04:44:56.312Z,6.43
2017-08-09T04:47:24.689Z,7.17
2017-08-09T04:49:52.252Z,7.30
2017-08-09T04:52:19.799Z,8.07
2017-08-09T04:54:47.381Z,8.73
2017-08-09T04:57:14.942Z,7.90
2017-08-09T04:59:42.493Z,7.80
2017-08-09T05:02:10.050Z,7.70
2017-08-09T05:04:37.596Z,8.27
2017-08-09T05:07:05.145Z,9.60
2017-08-09T05:09:32.729Z,7.80
2017-08-09T05:12:00.305Z,5.63
2017-08-09T05:14:27.845Z,6.83
2017-08-09T05:16:55.507Z,6.87
2017-08-09T05:19:23.038Z,8.07
2017-08-09T05:21:50.632Z,8.67
2017-08-09T05:24:18.153Z,8.10
2017-08-09T05:26:46.448Z,8.23
2017-08-09T05:29:14.123Z,7.80
2017-08-09T05:31:41.687Z,8.00
2017-08-09T05:34:09.241Z,7.50
2017-08-09T05:36:36.786Z,7.47
2017-08-09T05:39:04.310Z,6.90
2017-08-09T05:41:32.607Z,5.73
2017-08-09T05:44:00.910Z,5.80
2017-08-09T05:46:28.443Z,5.87
2017-08-09T05:48:56.750Z,5.90
2017-08-09T05:51:24.294Z,5.63
2017-08-09T05:53:51.866Z,6.00
2017-08-09T05:56:19.385Z,7.20
2017-08-09T05:58:47.705Z,7.53
2017-08-09T06:01:15.223Z,7.50
2017-08-09T06:03:43.549Z,6.43
2017-08-09T06:06:11.100Z,6.80
2017-08-09T06:08:38.621Z,7.57
2017-08-09T06:11:06.902Z,7.57
2017-08-09T06:13:35.201Z,6.90
2017-08-09T06:16:02.777Z,7.00
2017-08-09T06:18:30.299Z,7.30
2017-08-09T06:20:58.609Z,8.27
2017-08-09T06:23:26.167Z,9.03
2017-08-09T06:25:53.685Z,8.20
2017-08-09T06:28:22.015Z,8.33
2017-08-09T06:30:49.533Z,8.60
2017-08-09T06:33:17.812Z,8.13
2017-08-09T06:35:45.503Z,8.00
2017-08-09T06:38:13.066Z,8.90
2017-08-09T06:40:40.624Z,7.00
2017-08-09T06:43:08.158Z,7.83
2017-08-09T06:45:35.713Z,7.20
2017-08-09T06:48:03.306Z,8.20
2017-08-09T06:50:31.063Z,7.10
2017-08-09T06:52:59.458Z,7.20
2017-08-09T06:55:26.986Z,6.83
2017-08-09T06:57:54.544Z,6.50
2017-08-09T07:00:22.070Z,6.20
2017-08-09T07:02:49.585Z,6.47
2017-08-09T07:05:17.137Z,7.10
2017-08-09T07:07:44.665Z,6.73
2017-08-09T07:10:12.959Z,6.27
2017-08-09T07:12:40.497Z,5.37
2017-08-09T07:15:08.813Z,5.37
2017-08-09T07:17:36.382Z,4.90
2017-08-09T07:20:03.927Z,5.07
2017-08-09T07:22:31.445Z,4.30
2017-08-09T07:24:59.736Z,4.80
2017-08-09T07:27:28.052Z,4.63
2017-08-09T07:29:55.583Z,4.50
2017-08-09T07:32:23.108Z,4.63
2017-08-09T07:34:50.644Z,3.60
2017-08-09T07:37:18.196Z,4.77
2017-08-09T07:39:45.713Z,5.23
2017-08-09T07:42:13.248Z,4.23
2017-08-09T07:44:40.770Z,4.50
2017-08-09T07:47:08.314Z,3.50
2017-08-09T07:49:35.852Z,3.43
2017-08-09T07:52:03.406Z,3.10
2017-08-09T07:54:31.096Z,3.47
2017-08-09T07:56:58.650Z,2.60
2017-08-09T07:59:26.214Z,2.80
2017-08-09T08:01:53.734Z,2.73
2017-08-09T08:04:22.050Z,2.87
2017-08-09T08:06:49.614Z,2.90
2017-08-09T08:09:17.169Z,2.43
2017-08-09T08:11:44.733Z,3.23
2017-08-09T08:14:12.245Z,2.40
2017-08-09T08:16:40.581Z,2.50
2017-08-09T08:19:08.229Z,3.00
2017-08-09T08:21:35.745Z,2.50
2017-08-09T08:24:04.169Z,2.83
2017-08-09T08:26:31.725Z,2.40
2017-08-09T08:28:59.285Z,2.40
2017-08-09T08:31:26.801Z,3.53
2017-08-09T08:33:55.120Z,2.73
2017-08-09T08:36:22.695Z,2.30
2017-08-09T08:38:50.210Z,2.07
2017-08-09T08:41:17.752Z,1.93
2017-08-09T08:43:46.044Z,1.77
2017-08-09T08:46:13.572Z,2.27
2017-08-09T08:48:41.114Z,2.03
2017-08-09T08:51:08.770Z,1.90
2017-08-09T08:53:36.323Z,2.13
2017-08-09T08:56:03.870Z,1.87
2017-08-09T08:58:31.396Z,2.00
2017-08-09T09:00:58.925Z,1.80
2017-08-09T09:03:26.561Z,2.00
2017-08-09T09:05:54.325Z,1.80
2017-08-09T09:08:21.850Z,1.87
2017-08-09T09:10:49.385Z,1.53
2017-08-09T09:13:17.099Z,1.70
2017-08-09T09:15:44.669Z,1.90
2017-08-09T09:18:12.208Z,1.43
2017-08-09T09:20:39.726Z,1.80
2017-08-09T09:23:07.241Z,1.50
2017-08-09T09:25:34.807Z,1.50
2017-08-09T09:28:02.353Z,1.67
2017-08-09T09:30:29.888Z,1.30
2017-08-09T09:32:57.433Z,1.20
2017-08-09T09:35:25.768Z,1.47
2017-08-09T09:37:53.312Z,1.30
2017-08-09T09:40:20.875Z,1.23
2017-08-09T09:42:48.430Z,1.50
2017-08-09T09:45:15.959Z,1.30
2017-08-09T09:47:43.516Z,1.30
2017-08-09T09:50:11.834Z,1.07
2017-08-09T09:52:39.354Z,1.20
2017-08-09T09:55:06.902Z,3.00
2017-08-09T09:57:34.502Z,2.17
2017-08-09T10:00:02.697Z,2.50
2017-08-09T10:02:30.338Z,7.60
2017-08-09T10:04:57.864Z,1.37
2017-08-09T10:07:26.146Z,1.10
2017-08-09T10:09:53.690Z,6.10
2017-08-09T10:12:21.302Z,12.13
2017-08-09T10:14:48.829Z,1.30
2017-08-09T10:17:16.370Z,1.27
2017-08-09T10:19:44.683Z,1.33
2017-08-09T10:22:12.203Z,2.00
2017-08-09T10:24:39.819Z,2.17
2017-08-09T10:27:07.374Z,1.60
2017-08-09T10:29:34.893Z,1.90
2017-08-09T10:32:02.449Z,1.60
2017-08-09T10:34:30.737Z,2.37
2017-08-09T10:36:58.327Z,1.80
2017-08-09T10:39:25.874Z,1.60
2017-08-09T10:41:53.443Z,1.80
2017-08-09T10:44:20.968Z,1.60
2017-08-09T10:46:49.380Z,2.00
2017-08-09T10:49:16.946Z,1.70
2017-08-09T10:51:44.506Z,1.20
2017-08-09T10:54:12.058Z,1.30
2017-08-09T10:56:39.621Z,1.60
2017-08-09T10:59:07.194Z,1.90
2017-08-09T11:01:34.758Z,1.40
2017-08-09T11:04:02.400Z,1.27
2017-08-09T11:06:29.930Z,1.27
2017-08-09T11:08:58.439Z,0.90
2017-08-09T11:11:25.971Z,1.10
2017-08-09T11:13:54.379Z,1.50
2017-08-09T11:16:21.945Z,1.00
2017-08-09T11:18:49.497Z,1.10
2017-08-09T11:21:17.023Z,1.30
2017-08-09T11:23:45.339Z,0.60
2017-08-09T11:26:12.867Z,0.87
2017-08-09T11:28:40.458Z,0.70
2017-08-09T11:31:08.329Z,1.10
2017-08-09T11:33:35.849Z,0.87
2017-08-09T11:36:03.378Z,0.70
2017-08-09T11:38:30.926Z,1.27
2017-08-09T11:40:58.481Z,0.80
2017-08-09T11:43:26.938Z,0.60
2017-08-09T11:45:54.480Z,0.70
2017-08-09T11:48:22.024Z,0.60
2017-08-09T11:50:50.332Z,0.70
2017-08-09T11:53:17.893Z,0.60
2017-08-09T11:55:45.458Z,0.50
2017-08-09T11:58:12.988Z,0.60
2017-08-09T12:00:40.576Z,0.60
2017-08-09T12:03:08.110Z,0.70
2017-08-09T12:05:35.694Z,0.80
2017-08-09T12:08:03.254Z,0.60
2017-08-09T12:10:30.794Z,0.70
2017-08-09T12:12:58.327Z,0.60
2017-08-09T12:15:26.643Z,0.70
2017-08-09T12:17:54.237Z,0.50
2017-08-09T12:20:21.761Z,0.88
2017-08-09T12:22:49.325Z,0.90
2017-08-09T12:25:16.845Z,0.75
2017-08-09T12:27:45.141Z,0.70
2017-08-09T12:30:12.725Z,0.70
2017-08-09T12:32:40.383Z,0.77
2017-08-09T12:35:08.047Z,0.87
2017-08-09T12:37:35.581Z,0.70
2017-08-09T12:40:03.121Z,0.90
2017-08-09T12:42:30.660Z,0.77
2017-08-09T12:44:58.293Z,0.80
2017-08-09T12:47:25.842Z,0.90
2017-08-09T12:49:53.504Z,1.12
2017-08-09T12:52:21.066Z,0.88
2017-08-09T12:54:48.588Z,1.10
2017-08-09T12:57:16.878Z,0.70
2017-08-09T12:59:44.414Z,0.80
2017-08-09T13:02:12.708Z,0.75
2017-08-09T13:04:40.294Z,0.50
2017-08-09T13:07:07.856Z,0.88
2017-08-09T13:09:35.377Z,0.73
2017-08-09T13:12:03.670Z,0.85
2017-08-09T13:14:31.210Z,0.90
2017-08-09T13:16:59.498Z,1.00
2017-08-09T13:19:27.022Z,1.12
2017-08-09T13:21:54.561Z,1.30
2017-08-09T13:24:22.117Z,0.95
2017-08-09T13:26:49.768Z,0.80
2017-08-09T13:29:17.331Z,1.00
2017-08-09T13:31:44.860Z,1.02
2017-08-09T13:34:12.421Z,0.75
2017-08-09T13:36:40.045Z,0.73
2017-08-09T13:39:07.669Z,0.85
2017-08-09T13:41:35.189Z,0.70
2017-08-09T13:44:03.602Z,0.70
2017-08-09T13:46:31.163Z,0.80
2017-08-09T13:48:58.720Z,0.80
2017-08-09T13:51:26.253Z,0.88
2017-08-09T13:53:53.774Z,0.80
2017-08-09T13:56:21.300Z,0.70
2017-08-09T13:58:48.858Z,0.98
2017-08-09T14:01:16.383Z,0.90
2017-08-09T14:03:44.697Z,0.90
2017-08-09T14:06:12.246Z,0.75
2017-08-09T14:08:40.530Z,0.90
2017-08-09T14:11:08.192Z,0.70
2017-08-09T14:13:35.758Z,0.80
2017-08-09T14:16:03.556Z,0.80
2017-08-09T14:18:31.114Z,0.82
2017-08-09T14:20:58.742Z,1.02
2017-08-09T14:23:26.262Z,0.98
2017-08-09T14:25:53.790Z,1.00
2017-08-09T14:28:21.333Z,1.00
2017-08-09T14:30:48.898Z,0.82
2017-08-09T14:33:16.446Z,1.00
2017-08-09T14:35:43.999Z,0.80
2017-08-09T14:38:11.656Z,0.90
2017-08-09T14:40:39.181Z,0.70
2017-08-09T14:43:06.723Z,1.00
2017-08-09T14:45:35.045Z,1.35
2017-08-09T14:48:02.713Z,1.00
2017-08-09T14:50:30.253Z,1.92
2017-08-09T14:52:57.781Z,1.00
2017-08-09T14:55:25.397Z,0.88
2017-08-09T14:57:53.108Z,1.05
2017-08-09T15:00:21.400Z,0.98
2017-08-09T15:02:49.710Z,0.80
2017-08-09T15:05:17.270Z,1.23
2017-08-09T15:07:44.886Z,1.00
2017-08-09T15:10:13.210Z,0.90
2017-08-09T15:12:40.770Z,1.02
2017-08-09T15:15:08.298Z,1.02
2017-08-09T15:17:35.899Z,1.42
2017-08-09T15:20:03.448Z,7.82
2017-08-09T15:22:30.974Z,1.00
2017-08-09T15:24:58.666Z,1.03
2017-08-09T15:27:26.218Z,1.13
2017-08-09T15:29:53.797Z,2.30
2017-08-09T15:32:21.321Z,1.30
2017-08-09T15:34:48.873Z,1.50
2017-08-09T15:37:17.179Z,1.60
2017-08-09T15:39:44.697Z,1.70
2017-08-09T15:42:13.021Z,1.33
2017-08-09T15:44:40.953Z,1.33
2017-08-09T15:47:09.237Z,1.30
2017-08-09T15:49:36.790Z,1.70
2017-08-09T15:52:04.378Z,1.23
2017-08-09T15:54:31.929Z,1.50
2017-08-09T15:56:59.468Z,1.60
2017-08-09T15:59:27.000Z,1.30
2017-08-09T16:01:54.515Z,1.57
2017-08-09T16:04:22.055Z,2.00
2017-08-09T16:06:49.577Z,1.57
2017-08-09T16:09:17.134Z,1.50
2017-08-09T16:11:44.674Z,1.67
2017-08-09T16:14:12.315Z,1.50
2017-08-09T16:16:39.899Z,1.70
2017-08-09T16:19:07.444Z,1.40
2017-08-09T16:21:34.966Z,3.40
2017-08-09T16:24:02.546Z,10.30
2017-08-09T16:26:30.120Z,1.17
2017-08-09T16:28:57.638Z,1.80
2017-08-09T16:31:25.157Z,1.87
2017-08-09T16:33:52.697Z,1.20
2017-08-09T16:36:20.222Z,2.00
2017-08-09T16:38:47.789Z,6.87
2017-08-09T16:41:15.333Z,1.67
2017-08-09T16:43:43.631Z,1.50
2017-08-09T16:46:11.158Z,1.47
2017-08-09T16:48:39.457Z,1.60
2017-08-09T16:51:06.985Z,1.47
2017-08-09T16:53:35.289Z,1.60
2017-08-09T16:56:02.821Z,1.47
2017-08-09T16:58:30.445Z,5.13
2017-08-09T17:00:58.000Z,2.30
2017-08-09T17:03:25.563Z,3.10
2017-08-09T17:05:53.194Z,1.77
2017-08-09T17:08:20.774Z,3.87
2017-08-09T17:10:48.435Z,1.67
2017-08-09T17:13:15.959Z,2.13
2017-08-09T17:15:43.654Z,1.83
2017-08-09T17:18:11.252Z,1.80
2017-08-09T17:20:38.771Z,1.47
2017-08-09T17:23:06.486Z,1.50
2017-08-09T17:25:34.018Z,1.60
2017-08-09T17:28:01.554Z,1.83
2017-08-09T17:30:29.116Z,1.57
2017-08-09T17:32:56.775Z,1.47
2017-08-09T17:35:24.434Z,1.43
2017-08-09T17:37:51.957Z,1.60
2017-08-09T17:40:19.494Z,1.60
2017-08-09T17:42:47.027Z,2.07
2017-08-09T17:45:14.553Z,4.67
2017-08-09T17:47:42.101Z,1.43
2017-08-09T17:50:09.638Z,2.13
2017-08-09T17:52:37.962Z,1.20
2017-08-09T17:55:05.527Z,1.80
2017-08-09T17:57:33.094Z,1.60
2017-08-09T18:00:00.621Z,1.50
2017-08-09T18:02:28.211Z,1.50
2017-08-09T18:04:55.762Z,1.67
2017-08-09T18:07:23.322Z,1.53
2017-08-09T18:09:50.868Z,5.53
2017-08-09T18:12:19.274Z,2.20
2017-08-09T18:14:46.816Z,2.97
2017-08-09T18:17:14.378Z,1.87
2017-08-09T18:19:41.895Z,7.67
2017-08-09T18:22:10.187Z,2.03
2017-08-09T18:24:37.738Z,1.80
2017-08-09T18:27:05.266Z,2.23
2017-08-09T18:29:32.790Z,9.90
2017-08-09T18:32:00.334Z,2.80
2017-08-09T18:34:27.914Z,1.63
2017-08-09T18:36:55.698Z,2.27
2017-08-09T18:39:23.241Z,1.87
2017-08-09T18:41:50.821Z,4.30
2017-08-09T18:44:18.350Z,5.40
2017-08-09T18:46:45.891Z,1.57
2017-08-09T18:49:13.469Z,1.43
2017-08-09T18:51:40.993Z,3.67
2017-08-09T18:54:09.345Z,6.90
2017-08-09T18:56:37.175Z,4.30
2017-08-09T18:59:04.697Z,2.57
2017-08-09T19:01:33.093Z,1.90
2017-08-09T19:04:00.671Z,1.93
2017-08-09T19:06:28.289Z,1.90
2017-08-09T19:08:56.602Z,2.20
2017-08-09T19:11:24.164Z,1.90
2017-08-09T19:13:51.726Z,1.77
2017-08-09T19:16:19.287Z,2.20
2017-08-09T19:18:46.818Z,2.23
2017-08-09T19:21:14.338Z,2.43
2017-08-09T19:23:41.883Z,6.40
2017-08-09T19:26:09.430Z,2.20
2017-08-09T19:28:36.988Z,1.73
2017-08-09T19:31:04.644Z,1.80
2017-08-09T19:33:32.168Z,1.63
2017-08-09T19:36:00.485Z,1.60
2017-08-09T19:38:28.041Z,7.47
2017-08-09T19:40:55.582Z,5.20
2017-08-09T19:43:23.109Z,4.23
2017-08-09T19:45:51.463Z,2.90
2017-08-09T19:48:19.105Z,13.17
2017-08-09T19:50:46.621Z,2.73
2017-08-09T19:53:14.939Z,2.43
2017-08-09T19:55:42.491Z,3.30
2017-08-09T19:58:10.013Z,2.70
2017-08-09T20:00:38.319Z,2.50
2017-08-09T20:03:05.843Z,2.20
2017-08-09T20:05:34.143Z,3.10
2017-08-09T20:08:01.903Z,2.60
2017-08-09T20:10:29.429Z,1.70
2017-08-09T20:12:56.950Z,2.50
2017-08-09T20:15:24.502Z,2.80
2017-08-09T20:17:52.031Z,2.77
2017-08-09T20:20:19.555Z,2.57
2017-08-09T20:22:47.091Z,2.50
2017-08-09T20:25:14.628Z,2.20
2017-08-09T20:27:42.140Z,1.90
2017-08-09T20:30:09.678Z,2.00
2017-08-09T20:32:37.198Z,1.80
2017-08-09T20:35:04.718Z,2.53
2017-08-09T20:37:32.266Z,2.27
2017-08-09T20:39:59.816Z,2.20
2017-08-09T20:42:27.346Z,2.77
2017-08-09T20:44:54.890Z,2.27
2017-08-09T20:47:22.470Z,2.50
2017-08-09T20:49:49.998Z,2.77
2017-08-09T20:52:17.546Z,2.50
2017-08-09T20:54:45.833Z,2.90
2017-08-09T20:57:13.367Z,2.57
2017-08-09T20:59:41.081Z,2.77
2017-08-09T21:02:08.667Z,2.57
2017-08-09T21:04:36.194Z,2.60
2017-08-09T21:07:03.841Z,2.90
2017-08-09T21:09:31.367Z,3.33
2017-08-09T21:11:59.225Z,2.73
2017-08-09T21:14:26.909Z,2.97
2017-08-09T21:16:55.275Z,2.80
2017-08-09T21:19:23.651Z,3.20
2017-08-09T21:21:51.985Z,3.00
2017-08-09T21:24:19.505Z,3.23
2017-08-09T21:26:47.793Z,4.20
2017-08-09T21:29:15.378Z,3.47
2017-08-09T21:31:42.947Z,3.30
2017-08-09T21:34:10.464Z,3.10
2017-08-09T21:36:38.767Z,2.93
2017-08-09T21:39:06.330Z,3.23
2017-08-09T21:41:33.902Z,3.47
2017-08-09T21:44:01.454Z,3.47
2017-08-09T21:46:28.990Z,3.70
2017-08-09T21:48:56.511Z,3.13
2017-08-09T21:51:24.134Z,2.90
2017-08-09T21:53:51.697Z,4.00
2017-08-09T21:56:19.214Z,4.00
2017-08-09T21:58:47.523Z,3.83
2017-08-09T22:01:15.190Z,4.40
2017-08-09T22:03:42.709Z,4.47
2017-08-09T22:06:11.025Z,3.97
2017-08-09T22:08:38.586Z,4.47
2017-08-09T22:11:06.113Z,4.27
2017-08-09T22:13:34.409Z,4.90
2017-08-09T22:16:01.933Z,4.40
2017-08-09T22:18:30.220Z,4.97
2017-08-09T22:20:58.522Z,4.97
2017-08-09T22:23:26.049Z,5.57
2017-08-09T22:25:54.347Z,4.80
2017-08-09T22:28:21.885Z,5.17
2017-08-09T22:30:49.401Z,5.13
2017-08-09T22:33:16.951Z,5.27
2017-08-09T22:35:44.506Z,6.07
2017-08-09T22:38:12.027Z,5.33
2017-08-09T22:40:40.308Z,4.80
2017-08-09T22:43:08.720Z,4.83
2017-08-09T22:45:36.293Z,4.47
2017-08-09T22:48:03.843Z,4.33
2017-08-09T22:50:31.400Z,4.60
2017-08-09T22:52:58.998Z,4.53
2017-08-09T22:55:26.530Z,4.43
2017-08-09T22:57:54.078Z,4.10
2017-08-09T23:00:21.734Z,5.20
2017-08-09T23:02:49.257Z,4.97
2017-08-09T23:05:17.558Z,4.60
2017-08-09T23:07:45.137Z,4.60
2017-08-09T23:10:12.798Z,4.80
2017-08-09T23:12:40.459Z,4.90
2017-08-09T23:15:07.982Z,5.27
2017-08-09T23:17:36.273Z,5.20
2017-08-09T23:20:03.857Z,5.03
2017-08-09T23:22:31.415Z,5.40
2017-08-09T23:24:58.934Z,4.90
2017-08-09T23:27:27.869Z,5.30
2017-08-09T23:29:55.411Z,4.70
2017-08-09T23:32:23.468Z,5.50
2017-08-09T23:34:51.013Z,5.47
2017-08-09T23:37:19.300Z,6.43
2017-08-09T23:39:46.995Z,7.30
2017-08-09T23:42:14.554Z,6.17
2017-08-09T23:57:42.182Z,6.60
